sensor_id;sensor_type;location;lat;lon;timestamp;P1;durP1;ratioP1;P2;durP2;ratioP2
2035;SDS011;23642;42.658;23.350;2023-04-23T00:01:15;94.83;;;88.97;;
2035;SDS011;23642;42.658;23.350;2023-04-23T00:03:43;92.03;;;86.27;;
2035;SDS011;23642;42.658;23.350;2023-04-23T00:06:15;95.23;;;89.10;;
2035;SDS011;23642;42.658;23.350;2023-04-23T00:08:43;95.43;;;89.13;;
2035;SDS011;23642;42.658;23.350;2023-04-23T00:11:10;96.13;;;90.03;;
2035;SDS011;23642;42.658;23.350;2023-04-23T00:13:37;97.40;;;91.20;;
2035;SDS011;23642;42.658;23.350;2023-04-23T00:16:05;97.83;;;90.93;;
2035;SDS011;23642;42.658;23.350;2023-04-23T00:18:34;97.87;;;91.70;;
2035;SDS011;23642;42.658;23.350;2023-04-23T00:21:01;95.67;;;89.63;;
2035;SDS011;23642;42.658;23.350;2023-04-23T00:23:30;97.10;;;90.70;;
2035;SDS011;23642;42.658;23.350;2023-04-23T00:25:56;97.80;;;91.40;;
2035;SDS011;23642;42.658;23.350;2023-04-23T00:28:23;99.23;;;93.03;;
2035;SDS011;23642;42.658;23.350;2023-04-23T00:30:50;97.50;;;91.40;;
2035;SDS011;23642;42.658;23.350;2023-04-23T00:33:17;95.03;;;88.93;;
2035;SDS011;23642;42.658;23.350;2023-04-23T00:35:44;93.77;;;87.87;;
2035;SDS011;23642;42.658;23.350;2023-04-23T00:38:10;93.60;;;87.57;;
2035;SDS011;23642;42.658;23.350;2023-04-23T00:40:39;96.27;;;90.00;;
2035;SDS011;23642;42.658;23.350;2023-04-23T00:43:06;92.50;;;86.60;;
2035;SDS011;23642;42.658;23.350;2023-04-23T00:45:33;94.13;;;88.33;;
2035;SDS011;23642;42.658;23.350;2023-04-23T00:48:01;93.13;;;87.23;;
2035;SDS011;23642;42.658;23.350;2023-04-23T00:50:29;94.30;;;88.60;;
2035;SDS011;23642;42.658;23.350;2023-04-23T00:52:55;94.90;;;89.20;;
2035;SDS011;23642;42.658;23.350;2023-04-23T00:55:22;97.50;;;91.40;;
2035;SDS011;23642;42.658;23.350;2023-04-23T00:57:51;95.87;;;89.83;;
2035;SDS011;23642;42.658;23.350;2023-04-23T01:00:18;95.27;;;89.27;;
2035;SDS011;23642;42.658;23.350;2023-04-23T01:02:45;94.77;;;89.07;;
2035;SDS011;23642;42.658;23.350;2023-04-23T01:05:14;95.60;;;89.30;;
2035;SDS011;23642;42.658;23.350;2023-04-23T01:07:42;96.27;;;90.10;;
2035;SDS011;23642;42.658;23.350;2023-04-23T01:10:10;95.43;;;89.33;;
2035;SDS011;23642;42.658;23.350;2023-04-23T01:12:37;94.50;;;88.40;;
2035;SDS011;23642;42.658;23.350;2023-04-23T01:15:06;94.80;;;88.97;;
2035;SDS011;23642;42.658;23.350;2023-04-23T01:17:34;94.33;;;88.10;;
2035;SDS011;23642;42.658;23.350;2023-04-23T01:20:02;93.43;;;87.73;;
2035;SDS011;23642;42.658;23.350;2023-04-23T01:22:33;93.80;;;87.63;;
2035;SDS011;23642;42.658;23.350;2023-04-23T01:25:01;97.30;;;91.10;;
2035;SDS011;23642;42.658;23.350;2023-04-23T01:27:28;95.47;;;89.47;;
2035;SDS011;23642;42.658;23.350;2023-04-23T01:29:55;95.77;;;89.77;;
2035;SDS011;23642;42.658;23.350;2023-04-23T01:32:23;94.47;;;88.27;;
2035;SDS011;23642;42.658;23.350;2023-04-23T01:34:49;91.43;;;85.70;;
2035;SDS011;23642;42.658;23.350;2023-04-23T01:37:19;94.57;;;88.20;;
2035;SDS011;23642;42.658;23.350;2023-04-23T01:39:49;92.87;;;86.67;;
2035;SDS011;23642;42.658;23.350;2023-04-23T01:42:16;92.40;;;86.43;;
2035;SDS011;23642;42.658;23.350;2023-04-23T01:44:43;93.77;;;87.87;;
2035;SDS011;23642;42.658;23.350;2023-04-23T01:47:10;90.33;;;84.63;;
2035;SDS011;23642;42.658;23.350;2023-04-23T01:49:37;93.60;;;87.70;;
2035;SDS011;23642;42.658;23.350;2023-04-23T01:52:04;93.77;;;87.80;;
2035;SDS011;23642;42.658;23.350;2023-04-23T01:54:31;93.07;;;87.07;;
2035;SDS011;23642;42.658;23.350;2023-04-23T01:56:59;92.83;;;87.00;;
2035;SDS011;23642;42.658;23.350;2023-04-23T01:59:27;93.00;;;87.23;;
2035;SDS011;23642;42.658;23.350;2023-04-23T02:01:53;94.07;;;87.77;;
2035;SDS011;23642;42.658;23.350;2023-04-23T02:04:20;95.60;;;89.30;;
2035;SDS011;23642;42.658;23.350;2023-04-23T02:06:48;92.60;;;86.70;;
2035;SDS011;23642;42.658;23.350;2023-04-23T02:09:16;92.97;;;87.20;;
2035;SDS011;23642;42.658;23.350;2023-04-23T02:11:43;92.13;;;86.33;;
2035;SDS011;23642;42.658;23.350;2023-04-23T02:14:11;92.00;;;86.10;;
2035;SDS011;23642;42.658;23.350;2023-04-23T02:16:38;93.20;;;87.60;;
2035;SDS011;23642;42.658;23.350;2023-04-23T02:19:05;93.73;;;87.80;;
2035;SDS011;23642;42.658;23.350;2023-04-23T02:21:32;93.50;;;87.50;;
2035;SDS011;23642;42.658;23.350;2023-04-23T02:23:58;93.97;;;88.00;;
2035;SDS011;23642;42.658;23.350;2023-04-23T02:26:25;90.73;;;84.93;;
2035;SDS011;23642;42.658;23.350;2023-04-23T02:28:53;90.40;;;84.60;;
2035;SDS011;23642;42.658;23.350;2023-04-23T02:31:21;92.23;;;86.23;;
2035;SDS011;23642;42.658;23.350;2023-04-23T02:33:48;90.70;;;84.50;;
2035;SDS011;23642;42.658;23.350;2023-04-23T02:36:15;90.90;;;85.10;;
2035;SDS011;23642;42.658;23.350;2023-04-23T02:38:42;91.93;;;86.13;;
2035;SDS011;23642;42.658;23.350;2023-04-23T02:41:09;90.70;;;84.43;;
2035;SDS011;23642;42.658;23.350;2023-04-23T02:43:36;88.27;;;82.57;;
2035;SDS011;23642;42.658;23.350;2023-04-23T02:46:03;90.23;;;84.43;;
2035;SDS011;23642;42.658;23.350;2023-04-23T02:48:35;89.67;;;83.80;;
2035;SDS011;23642;42.658;23.350;2023-04-23T02:51:03;91.37;;;85.47;;
2035;SDS011;23642;42.658;23.350;2023-04-23T02:53:30;90.07;;;84.37;;
2035;SDS011;23642;42.658;23.350;2023-04-23T02:55:57;88.53;;;82.87;;
2035;SDS011;23642;42.658;23.350;2023-04-23T02:58:25;91.60;;;85.80;;
2035;SDS011;23642;42.658;23.350;2023-04-23T03:00:52;90.07;;;84.60;;
2035;SDS011;23642;42.658;23.350;2023-04-23T03:03:20;91.83;;;86.03;;
2035;SDS011;23642;42.658;23.350;2023-04-23T03:05:51;89.23;;;83.43;;
2035;SDS011;23642;42.658;23.350;2023-04-23T03:08:21;88.80;;;83.17;;
2035;SDS011;23642;42.658;23.350;2023-04-23T03:10:48;90.57;;;84.93;;
2035;SDS011;23642;42.658;23.350;2023-04-23T03:13:15;89.40;;;83.17;;
2035;SDS011;23642;42.658;23.350;2023-04-23T03:15:42;87.17;;;81.47;;
2035;SDS011;23642;42.658;23.350;2023-04-23T03:18:08;89.50;;;83.77;;
2035;SDS011;23642;42.658;23.350;2023-04-23T03:20:36;88.30;;;82.70;;
2035;SDS011;23642;42.658;23.350;2023-04-23T03:23:04;89.10;;;83.50;;
2035;SDS011;23642;42.658;23.350;2023-04-23T03:25:31;90.73;;;84.77;;
2035;SDS011;23642;42.658;23.350;2023-04-23T03:27:58;89.63;;;84.03;;
2035;SDS011;23642;42.658;23.350;2023-04-23T03:30:25;87.23;;;81.63;;
2035;SDS011;23642;42.658;23.350;2023-04-23T03:32:53;87.10;;;81.53;;
2035;SDS011;23642;42.658;23.350;2023-04-23T03:35:21;92.33;;;86.40;;
2035;SDS011;23642;42.658;23.350;2023-04-23T03:37:47;91.27;;;85.57;;
2035;SDS011;23642;42.658;23.350;2023-04-23T03:40:16;89.87;;;84.27;;
2035;SDS011;23642;42.658;23.350;2023-04-23T03:42:43;90.17;;;84.43;;
2035;SDS011;23642;42.658;23.350;2023-04-23T03:45:10;89.73;;;83.77;;
2035;SDS011;23642;42.658;23.350;2023-04-23T03:47:38;88.77;;;83.17;;
2035;SDS011;23642;42.658;23.350;2023-04-23T03:50:08;89.63;;;83.50;;
2035;SDS011;23642;42.658;23.350;2023-04-23T03:52:37;89.50;;;83.50;;
2035;SDS011;23642;42.658;23.350;2023-04-23T03:55:04;86.00;;;80.30;;
2035;SDS011;23642;42.658;23.350;2023-04-23T03:57:34;87.60;;;82.10;;
2035;SDS011;23642;42.658;23.350;2023-04-23T04:00:02;87.80;;;82.00;;
2035;SDS011;23642;42.658;23.350;2023-04-23T04:02:32;87.00;;;81.40;;
2035;SDS011;23642;42.658;23.350;2023-04-23T04:04:59;90.47;;;84.47;;
2035;SDS011;23642;42.658;23.350;2023-04-23T04:07:26;88.47;;;82.50;;
2035;SDS011;23642;42.658;23.350;2023-04-23T04:09:52;88.97;;;83.07;;
2035;SDS011;23642;42.658;23.350;2023-04-23T04:12:19;85.27;;;79.67;;
2035;SDS011;23642;42.658;23.350;2023-04-23T04:14:47;88.57;;;82.80;;
2035;SDS011;23642;42.658;23.350;2023-04-23T04:17:14;88.23;;;82.57;;
2035;SDS011;23642;42.658;23.350;2023-04-23T04:19:44;88.30;;;82.27;;
2035;SDS011;23642;42.658;23.350;2023-04-23T04:22:10;88.47;;;82.77;;
2035;SDS011;23642;42.658;23.350;2023-04-23T04:24:37;88.67;;;82.87;;
2035;SDS011;23642;42.658;23.350;2023-04-23T04:27:05;90.30;;;84.70;;
2035;SDS011;23642;42.658;23.350;2023-04-23T04:29:33;90.30;;;84.50;;
2035;SDS011;23642;42.658;23.350;2023-04-23T04:32:01;92.77;;;86.77;;
2035;SDS011;23642;42.658;23.350;2023-04-23T04:34:29;87.97;;;81.40;;
2035;SDS011;23642;42.658;23.350;2023-04-23T04:36:56;87.23;;;81.53;;
2035;SDS011;23642;42.658;23.350;2023-04-23T04:39:22;88.43;;;82.60;;
2035;SDS011;23642;42.658;23.350;2023-04-23T04:41:50;89.90;;;84.10;;
2035;SDS011;23642;42.658;23.350;2023-04-23T04:44:17;90.63;;;84.70;;
2035;SDS011;23642;42.658;23.350;2023-04-23T04:46:49;90.03;;;84.10;;
2035;SDS011;23642;42.658;23.350;2023-04-23T04:49:18;90.30;;;84.50;;
2035;SDS011;23642;42.658;23.350;2023-04-23T04:51:46;89.60;;;83.80;;
2035;SDS011;23642;42.658;23.350;2023-04-23T04:54:12;89.50;;;83.90;;
2035;SDS011;23642;42.658;23.350;2023-04-23T04:56:39;89.27;;;83.47;;
2035;SDS011;23642;42.658;23.350;2023-04-23T04:59:06;89.03;;;83.33;;
2035;SDS011;23642;42.658;23.350;2023-04-23T05:01:35;89.57;;;83.87;;
2035;SDS011;23642;42.658;23.350;2023-04-23T05:04:02;90.20;;;84.20;;
2035;SDS011;23642;42.658;23.350;2023-04-23T05:06:31;90.23;;;84.43;;
2035;SDS011;23642;42.658;23.350;2023-04-23T05:08:58;90.90;;;85.10;;
2035;SDS011;23642;42.658;23.350;2023-04-23T05:11:24;91.20;;;84.90;;
2035;SDS011;23642;42.658;23.350;2023-04-23T05:13:51;91.00;;;85.17;;
2035;SDS011;23642;42.658;23.350;2023-04-23T05:16:18;92.40;;;86.20;;
2035;SDS011;23642;42.658;23.350;2023-04-23T05:18:45;94.10;;;87.70;;
2035;SDS011;23642;42.658;23.350;2023-04-23T05:21:12;92.93;;;86.93;;
2035;SDS011;23642;42.658;23.350;2023-04-23T05:23:40;93.07;;;87.07;;
2035;SDS011;23642;42.658;23.350;2023-04-23T05:26:07;92.83;;;86.57;;
2035;SDS011;23642;42.658;23.350;2023-04-23T05:28:34;92.37;;;86.47;;
2035;SDS011;23642;42.658;23.350;2023-04-23T05:31:01;93.77;;;87.47;;
2035;SDS011;23642;42.658;23.350;2023-04-23T05:33:28;93.60;;;87.60;;
2035;SDS011;23642;42.658;23.350;2023-04-23T05:35:56;92.83;;;86.93;;
2035;SDS011;23642;42.658;23.350;2023-04-23T05:38:23;93.20;;;87.10;;
2035;SDS011;23642;42.658;23.350;2023-04-23T05:40:52;93.87;;;87.77;;
2035;SDS011;23642;42.658;23.350;2023-04-23T05:43:19;94.33;;;88.00;;
2035;SDS011;23642;42.658;23.350;2023-04-23T05:45:46;93.57;;;87.47;;
2035;SDS011;23642;42.658;23.350;2023-04-23T05:48:12;93.40;;;86.63;;
2035;SDS011;23642;42.658;23.350;2023-04-23T05:50:39;92.67;;;86.27;;
2035;SDS011;23642;42.658;23.350;2023-04-23T05:53:06;91.67;;;85.40;;
2035;SDS011;23642;42.658;23.350;2023-04-23T05:55:33;91.77;;;85.50;;
2035;SDS011;23642;42.658;23.350;2023-04-23T05:58:03;96.90;;;89.77;;
2035;SDS011;23642;42.658;23.350;2023-04-23T06:00:30;95.40;;;88.73;;
2035;SDS011;23642;42.658;23.350;2023-04-23T06:02:57;94.30;;;87.90;;
2035;SDS011;23642;42.658;23.350;2023-04-23T06:05:24;96.47;;;90.07;;
2035;SDS011;23642;42.658;23.350;2023-04-23T06:07:51;97.37;;;90.80;;
2035;SDS011;23642;42.658;23.350;2023-04-23T06:10:18;97.63;;;90.93;;
2035;SDS011;23642;42.658;23.350;2023-04-23T06:12:45;94.00;;;87.90;;
2035;SDS011;23642;42.658;23.350;2023-04-23T06:15:15;93.37;;;87.33;;
2035;SDS011;23642;42.658;23.350;2023-04-23T06:17:42;95.33;;;89.03;;
2035;SDS011;23642;42.658;23.350;2023-04-23T06:20:12;95.03;;;88.63;;
2035;SDS011;23642;42.658;23.350;2023-04-23T06:22:39;95.53;;;89.30;;
2035;SDS011;23642;42.658;23.350;2023-04-23T06:25:06;94.90;;;88.50;;
2035;SDS011;23642;42.658;23.350;2023-04-23T06:27:33;96.63;;;90.33;;
2035;SDS011;23642;42.658;23.350;2023-04-23T06:30:00;94.10;;;87.60;;
2035;SDS011;23642;42.658;23.350;2023-04-23T06:32:28;94.77;;;88.23;;
2035;SDS011;23642;42.658;23.350;2023-04-23T06:34:55;95.80;;;89.43;;
2035;SDS011;23642;42.658;23.350;2023-04-23T06:37:22;95.30;;;88.80;;
2035;SDS011;23642;42.658;23.350;2023-04-23T06:39:50;95.20;;;88.70;;
2035;SDS011;23642;42.658;23.350;2023-04-23T06:42:17;92.73;;;86.63;;
2035;SDS011;23642;42.658;23.350;2023-04-23T06:44:46;95.30;;;89.00;;
2035;SDS011;23642;42.658;23.350;2023-04-23T06:47:12;96.77;;;90.57;;
2035;SDS011;23642;42.658;23.350;2023-04-23T06:49:41;98.07;;;91.67;;
2035;SDS011;23642;42.658;23.350;2023-04-23T06:52:08;95.60;;;89.10;;
2035;SDS011;23642;42.658;23.350;2023-04-23T06:54:36;97.30;;;91.07;;
2035;SDS011;23642;42.658;23.350;2023-04-23T06:57:02;97.43;;;90.83;;
2035;SDS011;23642;42.658;23.350;2023-04-23T06:59:29;96.83;;;90.33;;
2035;SDS011;23642;42.658;23.350;2023-04-23T07:01:56;96.50;;;90.20;;
2035;SDS011;23642;42.658;23.350;2023-04-23T07:04:23;97.20;;;90.40;;
2035;SDS011;23642;42.658;23.350;2023-04-23T07:06:51;98.83;;;92.27;;
2035;SDS011;23642;42.658;23.350;2023-04-23T07:09:19;95.93;;;89.53;;
2035;SDS011;23642;42.658;23.350;2023-04-23T07:11:46;97.00;;;90.47;;
2035;SDS011;23642;42.658;23.350;2023-04-23T07:14:12;95.80;;;89.50;;
2035;SDS011;23642;42.658;23.350;2023-04-23T07:16:39;95.00;;;88.60;;
2035;SDS011;23642;42.658;23.350;2023-04-23T07:19:06;97.50;;;91.00;;
2035;SDS011;23642;42.658;23.350;2023-04-23T07:21:33;95.13;;;88.70;;
2035;SDS011;23642;42.658;23.350;2023-04-23T07:24:01;96.63;;;90.00;;
2035;SDS011;23642;42.658;23.350;2023-04-23T07:26:30;96.17;;;89.93;;
2035;SDS011;23642;42.658;23.350;2023-04-23T07:28:57;97.00;;;90.70;;
2035;SDS011;23642;42.658;23.350;2023-04-23T07:31:27;96.87;;;89.97;;
2035;SDS011;23642;42.658;23.350;2023-04-23T07:33:55;95.80;;;89.50;;
2035;SDS011;23642;42.658;23.350;2023-04-23T07:36:22;97.60;;;90.93;;
2035;SDS011;23642;42.658;23.350;2023-04-23T07:38:49;96.93;;;90.70;;
2035;SDS011;23642;42.658;23.350;2023-04-23T07:41:17;96.43;;;90.23;;
2035;SDS011;23642;42.658;23.350;2023-04-23T07:43:44;96.73;;;89.80;;
2035;SDS011;23642;42.658;23.350;2023-04-23T07:46:11;98.60;;;92.03;;
2035;SDS011;23642;42.658;23.350;2023-04-23T07:48:40;97.27;;;90.67;;
2035;SDS011;23642;42.658;23.350;2023-04-23T07:51:07;97.70;;;91.10;;
2035;SDS011;23642;42.658;23.350;2023-04-23T07:53:34;96.13;;;89.47;;
2035;SDS011;23642;42.658;23.350;2023-04-23T07:56:01;96.77;;;90.23;;
2035;SDS011;23642;42.658;23.350;2023-04-23T07:58:29;96.77;;;90.43;;
2035;SDS011;23642;42.658;23.350;2023-04-23T08:00:59;98.33;;;91.77;;
2035;SDS011;23642;42.658;23.350;2023-04-23T08:03:27;97.90;;;91.23;;
2035;SDS011;23642;42.658;23.350;2023-04-23T08:05:54;96.90;;;90.57;;
2035;SDS011;23642;42.658;23.350;2023-04-23T08:08:21;97.07;;;90.80;;
2035;SDS011;23642;42.658;23.350;2023-04-23T08:10:50;100.77;;;93.53;;
2035;SDS011;23642;42.658;23.350;2023-04-23T08:13:19;98.53;;;92.00;;
2035;SDS011;23642;42.658;23.350;2023-04-23T08:15:47;97.77;;;91.30;;
2035;SDS011;23642;42.658;23.350;2023-04-23T08:18:16;98.43;;;91.37;;
2035;SDS011;23642;42.658;23.350;2023-04-23T08:20:43;99.27;;;92.67;;
2035;SDS011;23642;42.658;23.350;2023-04-23T08:23:10;100.60;;;93.90;;
2035;SDS011;23642;42.658;23.350;2023-04-23T08:25:37;99.13;;;92.73;;
2035;SDS011;23642;42.658;23.350;2023-04-23T08:28:05;98.10;;;91.90;;
2035;SDS011;23642;42.658;23.350;2023-04-23T08:30:32;99.20;;;92.70;;
2035;SDS011;23642;42.658;23.350;2023-04-23T08:33:00;99.03;;;92.67;;
2035;SDS011;23642;42.658;23.350;2023-04-23T08:35:27;100.17;;;93.67;;
2035;SDS011;23642;42.658;23.350;2023-04-23T08:37:54;98.97;;;92.33;;
2035;SDS011;23642;42.658;23.350;2023-04-23T08:40:20;100.23;;;93.73;;
2035;SDS011;23642;42.658;23.350;2023-04-23T08:42:48;98.40;;;92.00;;
2035;SDS011;23642;42.658;23.350;2023-04-23T08:45:20;98.93;;;92.43;;
2035;SDS011;23642;42.658;23.350;2023-04-23T08:47:47;100.03;;;93.27;;
2035;SDS011;23642;42.658;23.350;2023-04-23T08:50:16;101.17;;;94.50;;
2035;SDS011;23642;42.658;23.350;2023-04-23T08:52:45;98.73;;;92.33;;
2035;SDS011;23642;42.658;23.350;2023-04-23T08:55:16;100.10;;;93.70;;
2035;SDS011;23642;42.658;23.350;2023-04-23T08:57:44;99.00;;;92.80;;
2035;SDS011;23642;42.658;23.350;2023-04-23T09:00:12;100.13;;;93.73;;
2035;SDS011;23642;42.658;23.350;2023-04-23T09:02:41;100.27;;;93.87;;
2035;SDS011;23642;42.658;23.350;2023-04-23T09:05:09;99.97;;;93.57;;
2035;SDS011;23642;42.658;23.350;2023-04-23T09:07:38;97.27;;;90.90;;
2035;SDS011;23642;42.658;23.350;2023-04-23T09:10:05;98.13;;;91.83;;
2035;SDS011;23642;42.658;23.350;2023-04-23T09:12:37;98.60;;;92.30;;
2035;SDS011;23642;42.658;23.350;2023-04-23T09:15:05;98.90;;;92.60;;
2035;SDS011;23642;42.658;23.350;2023-04-23T09:17:35;99.27;;;92.80;;
2035;SDS011;23642;42.658;23.350;2023-04-23T09:20:04;107.40;;;100.20;;
2035;SDS011;23642;42.658;23.350;2023-04-23T09:22:41;98.97;;;92.37;;
2035;SDS011;23642;42.658;23.350;2023-04-23T09:25:10;100.47;;;93.70;;
2035;SDS011;23642;42.658;23.350;2023-04-23T09:27:38;98.30;;;92.00;;
2035;SDS011;23642;42.658;23.350;2023-04-23T09:30:06;97.80;;;91.50;;
2035;SDS011;23642;42.658;23.350;2023-04-23T09:32:35;99.70;;;93.40;;
2035;SDS011;23642;42.658;23.350;2023-04-23T09:35:04;99.93;;;93.47;;
2035;SDS011;23642;42.658;23.350;2023-04-23T09:37:32;99.30;;;93.00;;
2035;SDS011;23642;42.658;23.350;2023-04-23T09:40:04;98.50;;;92.27;;
2035;SDS011;23642;42.658;23.350;2023-04-23T09:42:34;98.67;;;91.23;;
2035;SDS011;23642;42.658;23.350;2023-04-23T09:45:02;99.97;;;93.33;;
2035;SDS011;23642;42.658;23.350;2023-04-23T09:47:31;97.80;;;91.40;;
2035;SDS011;23642;42.658;23.350;2023-04-23T09:49:59;98.40;;;91.90;;
2035;SDS011;23642;42.658;23.350;2023-04-23T09:52:26;97.10;;;90.80;;
2035;SDS011;23642;42.658;23.350;2023-04-23T09:54:56;96.23;;;89.80;;
2035;SDS011;23642;42.658;23.350;2023-04-23T09:57:28;99.27;;;92.10;;
2035;SDS011;23642;42.658;23.350;2023-04-23T09:59:55;96.70;;;90.50;;
2035;SDS011;23642;42.658;23.350;2023-04-23T10:02:25;97.60;;;91.60;;
2035;SDS011;23642;42.658;23.350;2023-04-23T10:04:53;98.00;;;91.90;;
2035;SDS011;23642;42.658;23.350;2023-04-23T10:07:20;97.70;;;91.60;;
2035;SDS011;23642;42.658;23.350;2023-04-23T10:09:47;97.43;;;91.33;;
2035;SDS011;23642;42.658;23.350;2023-04-23T10:12:14;97.93;;;91.70;;
2035;SDS011;23642;42.658;23.350;2023-04-23T10:14:44;97.43;;;91.40;;
2035;SDS011;23642;42.658;23.350;2023-04-23T10:17:13;100.43;;;94.07;;
2035;SDS011;23642;42.658;23.350;2023-04-23T10:19:42;96.93;;;90.93;;
2035;SDS011;23642;42.658;23.350;2023-04-23T10:22:09;99.53;;;93.20;;
2035;SDS011;23642;42.658;23.350;2023-04-23T10:24:41;99.30;;;92.97;;
2035;SDS011;23642;42.658;23.350;2023-04-23T10:27:11;97.77;;;91.77;;
2035;SDS011;23642;42.658;23.350;2023-04-23T10:29:40;99.33;;;93.00;;
2035;SDS011;23642;42.658;23.350;2023-04-23T10:32:08;99.10;;;92.80;;
2035;SDS011;23642;42.658;23.350;2023-04-23T10:34:37;104.37;;;97.57;;
2035;SDS011;23642;42.658;23.350;2023-04-23T10:37:05;98.40;;;92.23;;
2035;SDS011;23642;42.658;23.350;2023-04-23T10:39:33;98.43;;;92.00;;
2035;SDS011;23642;42.658;23.350;2023-04-23T10:42:01;100.03;;;93.73;;
2035;SDS011;23642;42.658;23.350;2023-04-23T10:44:32;98.40;;;92.20;;
2035;SDS011;23642;42.658;23.350;2023-04-23T10:47:00;98.80;;;92.80;;
2035;SDS011;23642;42.658;23.350;2023-04-23T10:49:30;97.40;;;91.30;;
2035;SDS011;23642;42.658;23.350;2023-04-23T10:51:57;98.17;;;91.80;;
2035;SDS011;23642;42.658;23.350;2023-04-23T10:54:27;98.63;;;92.53;;
2035;SDS011;23642;42.658;23.350;2023-04-23T10:56:59;98.40;;;92.23;;
2035;SDS011;23642;42.658;23.350;2023-04-23T10:59:27;93.60;;;87.60;;
2035;SDS011;23642;42.658;23.350;2023-04-23T11:01:58;97.57;;;91.47;;
2035;SDS011;23642;42.658;23.350;2023-04-23T11:04:32;96.17;;;90.03;;
2035;SDS011;23642;42.658;23.350;2023-04-23T11:07:04;95.50;;;89.30;;
2035;SDS011;23642;42.658;23.350;2023-04-23T11:09:35;98.33;;;92.07;;
2035;SDS011;23642;42.658;23.350;2023-04-23T11:12:07;94.37;;;88.47;;
2035;SDS011;23642;42.658;23.350;2023-04-23T11:14:36;95.37;;;89.37;;
2035;SDS011;23642;42.658;23.350;2023-04-23T11:17:09;95.80;;;89.27;;
2035;SDS011;23642;42.658;23.350;2023-04-23T11:19:39;95.33;;;89.30;;
2035;SDS011;23642;42.658;23.350;2023-04-23T11:22:11;94.90;;;89.10;;
2035;SDS011;23642;42.658;23.350;2023-04-23T11:24:42;96.30;;;90.20;;
2035;SDS011;23642;42.658;23.350;2023-04-23T11:27:11;98.07;;;91.33;;
2035;SDS011;23642;42.658;23.350;2023-04-23T11:29:39;94.80;;;89.00;;
2035;SDS011;23642;42.658;23.350;2023-04-23T11:32:07;97.60;;;91.60;;
2035;SDS011;23642;42.658;23.350;2023-04-23T11:34:39;98.23;;;92.13;;
2035;SDS011;23642;42.658;23.350;2023-04-23T11:37:08;97.30;;;91.30;;
2035;SDS011;23642;42.658;23.350;2023-04-23T11:39:36;95.30;;;89.30;;
2035;SDS011;23642;42.658;23.350;2023-04-23T11:42:07;94.73;;;88.93;;
2035;SDS011;23642;42.658;23.350;2023-04-23T11:44:38;95.60;;;89.40;;
2035;SDS011;23642;42.658;23.350;2023-04-23T11:47:06;97.80;;;91.73;;
2035;SDS011;23642;42.658;23.350;2023-04-23T11:49:35;96.83;;;90.80;;
2035;SDS011;23642;42.658;23.350;2023-04-23T11:52:03;94.97;;;89.03;;
2035;SDS011;23642;42.658;23.350;2023-04-23T11:54:30;93.87;;;88.33;;
2035;SDS011;23642;42.658;23.350;2023-04-23T11:56:58;96.50;;;90.30;;
2035;SDS011;23642;42.658;23.350;2023-04-23T11:59:25;95.80;;;89.90;;
2035;SDS011;23642;42.658;23.350;2023-04-23T12:01:53;99.67;;;93.30;;
2035;SDS011;23642;42.658;23.350;2023-04-23T12:04:21;96.90;;;90.90;;
2035;SDS011;23642;42.658;23.350;2023-04-23T12:06:49;95.27;;;89.47;;
2035;SDS011;23642;42.658;23.350;2023-04-23T12:09:20;95.50;;;89.60;;
2035;SDS011;23642;42.658;23.350;2023-04-23T12:11:48;96.63;;;90.83;;
2035;SDS011;23642;42.658;23.350;2023-04-23T12:14:17;95.60;;;89.80;;
2035;SDS011;23642;42.658;23.350;2023-04-23T12:16:51;98.00;;;91.87;;
2035;SDS011;23642;42.658;23.350;2023-04-23T12:19:18;96.83;;;91.13;;
2035;SDS011;23642;42.658;23.350;2023-04-23T12:21:47;95.77;;;89.97;;
2035;SDS011;23642;42.658;23.350;2023-04-23T12:24:15;98.30;;;92.30;;
2035;SDS011;23642;42.658;23.350;2023-04-23T12:26:43;97.57;;;91.70;;
2035;SDS011;23642;42.658;23.350;2023-04-23T12:29:11;95.50;;;89.70;;
2035;SDS011;23642;42.658;23.350;2023-04-23T12:31:39;94.60;;;88.90;;
2035;SDS011;23642;42.658;23.350;2023-04-23T12:34:08;95.77;;;89.97;;
2035;SDS011;23642;42.658;23.350;2023-04-23T12:36:37;96.60;;;90.70;;
2035;SDS011;23642;42.658;23.350;2023-04-23T12:39:17;95.73;;;89.83;;
2035;SDS011;23642;42.658;23.350;2023-04-23T12:41:51;94.20;;;88.50;;
2035;SDS011;23642;42.658;23.350;2023-04-23T12:44:19;96.37;;;90.23;;
2035;SDS011;23642;42.658;23.350;2023-04-23T12:46:53;97.43;;;91.33;;
2035;SDS011;23642;42.658;23.350;2023-04-23T12:49:20;96.07;;;90.30;;
2035;SDS011;23642;42.658;23.350;2023-04-23T12:51:47;95.23;;;89.53;;
2035;SDS011;23642;42.658;23.350;2023-04-23T12:54:14;95.13;;;89.43;;
2035;SDS011;23642;42.658;23.350;2023-04-23T12:56:41;96.40;;;90.43;;
2035;SDS011;23642;42.658;23.350;2023-04-23T12:59:09;94.33;;;88.37;;
2035;SDS011;23642;42.658;23.350;2023-04-23T13:01:36;95.50;;;89.50;;
2035;SDS011;23642;42.658;23.350;2023-04-23T13:04:02;95.93;;;90.23;;
2035;SDS011;23642;42.658;23.350;2023-04-23T13:06:29;96.00;;;90.13;;
2035;SDS011;23642;42.658;23.350;2023-04-23T13:08:56;97.07;;;91.07;;
2035;SDS011;23642;42.658;23.350;2023-04-23T13:11:26;94.43;;;88.60;;
2035;SDS011;23642;42.658;23.350;2023-04-23T13:13:53;94.37;;;88.47;;
2035;SDS011;23642;42.658;23.350;2023-04-23T13:16:21;94.20;;;88.40;;
2035;SDS011;23642;42.658;23.350;2023-04-23T13:18:47;95.77;;;89.87;;
2035;SDS011;23642;42.658;23.350;2023-04-23T13:21:15;94.50;;;88.90;;
2035;SDS011;23642;42.658;23.350;2023-04-23T13:23:42;96.90;;;90.77;;
2035;SDS011;23642;42.658;23.350;2023-04-23T13:26:09;95.37;;;89.33;;
2035;SDS011;23642;42.658;23.350;2023-04-23T13:28:36;94.80;;;88.97;;
2035;SDS011;23642;42.658;23.350;2023-04-23T13:31:03;94.73;;;89.03;;
2035;SDS011;23642;42.658;23.350;2023-04-23T13:33:33;96.77;;;90.80;;
2035;SDS011;23642;42.658;23.350;2023-04-23T13:36:00;95.17;;;89.37;;
2035;SDS011;23642;42.658;23.350;2023-04-23T13:38:29;97.07;;;90.87;;
2035;SDS011;23642;42.658;23.350;2023-04-23T13:40:55;95.33;;;89.63;;
2035;SDS011;23642;42.658;23.350;2023-04-23T13:43:22;95.53;;;89.73;;
2035;SDS011;23642;42.658;23.350;2023-04-23T13:45:50;96.60;;;90.70;;
2035;SDS011;23642;42.658;23.350;2023-04-23T13:48:21;95.20;;;89.50;;
2035;SDS011;23642;42.658;23.350;2023-04-23T13:50:54;95.67;;;89.97;;
2035;SDS011;23642;42.658;23.350;2023-04-23T13:53:21;95.27;;;89.27;;
2035;SDS011;23642;42.658;23.350;2023-04-23T13:55:48;96.50;;;90.63;;
2035;SDS011;23642;42.658;23.350;2023-04-23T13:58:15;95.97;;;89.87;;
2035;SDS011;23642;42.658;23.350;2023-04-23T14:00:42;94.50;;;88.80;;
2035;SDS011;23642;42.658;23.350;2023-04-23T14:03:09;96.13;;;90.43;;
2035;SDS011;23642;42.658;23.350;2023-04-23T14:05:36;97.57;;;91.53;;
2035;SDS011;23642;42.658;23.350;2023-04-23T14:08:06;96.03;;;90.20;;
2035;SDS011;23642;42.658;23.350;2023-04-23T14:10:33;95.33;;;89.50;;
2035;SDS011;23642;42.658;23.350;2023-04-23T14:13:03;95.80;;;89.80;;
2035;SDS011;23642;42.658;23.350;2023-04-23T14:15:30;95.17;;;89.03;;
2035;SDS011;23642;42.658;23.350;2023-04-23T14:17:57;96.47;;;90.57;;
2035;SDS011;23642;42.658;23.350;2023-04-23T14:20:28;95.57;;;89.63;;
2035;SDS011;23642;42.658;23.350;2023-04-23T14:22:55;90.53;;;85.00;;
2035;SDS011;23642;42.658;23.350;2023-04-23T14:25:39;95.27;;;89.40;;